createdAt,value
2022-08-05T00:02:07.894Z,99.90
2022-08-05T00:04:43.413Z,99.90
2022-08-05T00:07:21.793Z,99.90
2022-08-05T00:10:07.302Z,99.90
2022-08-05T00:12:56.140Z,99.90
2022-08-05T00:15:55.456Z,99.90
2022-08-05T00:18:22.549Z,99.90
2022-08-05T00:20:56.034Z,99.90
2022-08-05T00:23:44.582Z,99.90
2022-08-05T00:26:20.286Z,99.90
2022-08-05T00:28:52.376Z,99.90
2022-08-05T00:31:54.222Z,99.90
2022-08-05T00:34:53.953Z,99.90
2022-08-05T00:37:14.306Z,99.90
2022-08-05T00:39:58.641Z,99.90
2022-08-05T00:42:39.817Z,99.90
2022-08-05T00:45:13.569Z,99.90
2022-08-05T00:47:56.624Z,99.90
2022-08-05T00:50:29.375Z,99.90
2022-08-05T00:53:01.550Z,99.90
2022-08-05T00:55:42.476Z,99.90
2022-08-05T00:58:19.058Z,99.90
2022-08-05T01:00:53.699Z,99.90
2022-08-05T01:03:31.053Z,99.90
2022-08-05T01:06:06.475Z,99.90
2022-08-05T01:08:47.470Z,99.90
2022-08-05T01:11:37.298Z,99.90
2022-08-05T01:14:27.216Z,99.90
2022-08-05T01:17:16.309Z,99.90
2022-08-05T01:20:23.073Z,99.90
2022-08-05T01:23:26.327Z,99.90
2022-08-05T01:26:44.322Z,99.90
2022-08-05T01:29:44.014Z,99.90
2022-08-05T01:32:23.469Z,99.90
2022-08-05T01:35:03.111Z,99.90
2022-08-05T01:37:53.133Z,99.90
2022-08-05T01:40:29.557Z,99.90
2022-08-05T01:43:03.692Z,99.90
2022-08-05T01:45:43.143Z,99.90
2022-08-05T01:48:17.433Z,99.90
2022-08-05T01:50:51.446Z,99.90
2022-08-05T01:53:58.126Z,99.90
2022-08-05T01:58:09.706Z,99.90
2022-08-05T01:59:18.299Z,99.90
2022-08-05T02:01:52.754Z,99.90
2022-08-05T02:04:31.827Z,99.90
2022-08-05T02:07:05.324Z,99.90
2022-08-05T02:09:39.061Z,99.90
2022-08-05T02:12:51.649Z,99.90
2022-08-05T02:15:33.594Z,99.90
2022-08-05T02:18:31.342Z,99.90
2022-08-05T02:21:46.615Z,99.90
2022-08-05T02:24:23.075Z,99.90
2022-08-05T02:27:10.037Z,99.90
2022-08-05T02:29:59.584Z,99.90
2022-08-05T02:32:35.086Z,99.90
2022-08-05T02:35:14.171Z,99.90
2022-08-05T02:37:53.919Z,99.90
2022-08-05T02:40:31.093Z,99.90
2022-08-05T02:43:03.600Z,99.90
2022-08-05T02:45:51.889Z,99.90
2022-08-05T02:48:29.446Z,99.90
2022-08-05T02:51:05.593Z,99.90
2022-08-05T02:53:40.914Z,99.90
2022-08-05T02:56:16.160Z,99.90
2022-08-05T02:58:52.739Z,99.90
2022-08-05T03:01:28.644Z,99.90
2022-08-05T03:04:11.759Z,99.90
2022-08-05T03:06:53.647Z,99.90
2022-08-05T03:09:37.414Z,99.90
2022-08-05T03:12:10.719Z,99.90
2022-08-05T03:14:46.109Z,99.90
2022-08-05T03:17:20.266Z,99.90
2022-08-05T03:19:58.858Z,99.90
2022-08-05T03:22:32.543Z,99.90
2022-08-05T03:25:50.875Z,99.90
2022-08-05T03:27:59.755Z,99.90
2022-08-05T03:30:33.513Z,99.90
2022-08-05T03:33:08.945Z,99.90
2022-08-05T03:35:41.878Z,99.90
2022-08-05T03:38:14.721Z,99.90
2022-08-05T03:40:48.590Z,99.90
2022-08-05T03:44:08.074Z,99.90
2022-08-05T03:46:12.738Z,99.90
2022-08-05T03:48:45.319Z,99.90
2022-08-05T03:52:38.779Z,99.90
2022-08-05T03:55:53.702Z,99.90
2022-08-05T03:57:41.328Z,99.90
2022-08-05T04:00:17.547Z,99.90
2022-08-05T04:02:58.036Z,99.90
2022-08-05T04:05:34.579Z,99.90
2022-08-05T04:08:14.667Z,99.90
2022-08-05T04:11:03.316Z,99.90
2022-08-05T04:13:51.123Z,99.90
2022-08-05T04:16:32.338Z,99.90
2022-08-05T04:19:10.557Z,99.90
2022-08-05T04:22:09.703Z,99.90
2022-08-05T04:24:34.670Z,99.90
2022-08-05T04:27:06.558Z,99.90
2022-08-05T04:29:39.666Z,99.90
2022-08-05T04:32:11.637Z,99.90
2022-08-05T04:34:43.778Z,99.90
2022-08-05T04:37:15.668Z,99.90
2022-08-05T04:39:52.842Z,99.90
2022-08-05T04:42:25.578Z,99.90
2022-08-05T04:44:57.467Z,99.90
2022-08-05T04:47:38.634Z,99.90
2022-08-05T04:50:14.797Z,99.90
2022-08-05T04:53:09.480Z,99.90
2022-08-05T04:56:14.625Z,99.90
2022-08-05T04:58:38.446Z,99.90
2022-08-05T05:01:10.368Z,99.90
2022-08-05T05:03:43.348Z,99.90
2022-08-05T05:06:35.899Z,99.90
2022-08-05T05:09:10.733Z,99.90
2022-08-05T05:11:55.534Z,99.90
2022-08-05T05:14:32.194Z,99.90
2022-08-05T05:17:07.537Z,99.90
2022-08-05T05:19:44.317Z,99.90
2022-08-05T05:22:24.576Z,99.90
2022-08-05T05:25:00.152Z,99.90
2022-08-05T05:27:45.931Z,99.90
2022-08-05T05:30:33.360Z,99.90
2022-08-05T05:33:17.049Z,99.90
2022-08-05T05:35:49.304Z,99.90
2022-08-05T05:38:22.758Z,99.90
2022-08-05T05:40:59.505Z,99.90
2022-08-05T05:43:58.461Z,99.90
2022-08-05T05:46:23.305Z,99.90
2022-08-05T05:49:00.124Z,99.90
2022-08-05T05:51:49.917Z,99.90
2022-08-05T05:54:22.784Z,99.90
2022-08-05T05:57:19.179Z,99.90
2022-08-05T05:59:51.374Z,99.90
2022-08-05T06:02:36.652Z,99.90
2022-08-05T06:05:16.607Z,99.90
2022-08-05T06:07:58.012Z,99.90
2022-08-05T06:10:44.258Z,99.90
2022-08-05T06:13:24.352Z,99.90
2022-08-05T06:16:29.754Z,99.90
2022-08-05T06:18:48.763Z,99.90
2022-08-05T06:21:37.197Z,99.90
2022-08-05T06:24:12.770Z,99.90
2022-08-05T06:26:52.385Z,99.90
2022-08-05T06:29:51.062Z,99.90
2022-08-05T06:32:25.428Z,97.10
2022-08-05T06:35:06.135Z,94.30
2022-08-05T06:37:59.034Z,91.40
2022-08-05T06:40:35.136Z,86.50
2022-08-05T06:43:51.722Z,80.80
2022-08-05T06:46:07.337Z,77.30
2022-08-05T06:48:56.557Z,71.60
2022-08-05T06:51:33.304Z,69.00
2022-08-05T06:54:05.265Z,68.30
2022-08-05T06:56:42.070Z,68.90
2022-08-05T06:59:29.512Z,66.90
2022-08-05T07:02:12.888Z,66.60
2022-08-05T07:04:46.772Z,65.00
2022-08-05T07:07:24.034Z,64.40
2022-08-05T07:10:10.275Z,62.70
2022-08-05T07:13:05.356Z,62.90
2022-08-05T07:16:00.903Z,63.10
2022-08-05T07:18:36.230Z,61.70
2022-08-05T07:21:08.148Z,61.80
2022-08-05T07:23:49.926Z,62.60
2022-08-05T07:26:25.771Z,63.10
2022-08-05T07:28:57.814Z,64.10
2022-08-05T07:31:54.195Z,65.00
2022-08-05T07:34:28.666Z,64.10
2022-08-05T07:37:00.702Z,64.80
2022-08-05T07:40:04.455Z,63.70
2022-08-05T07:42:33.647Z,64.20
2022-08-05T07:45:09.331Z,65.60
2022-08-05T07:47:42.512Z,67.50
2022-08-05T07:50:16.664Z,67.20
2022-08-05T07:52:48.748Z,67.30
2022-08-05T07:55:44.179Z,68.00
2022-08-05T07:58:54.894Z,68.60
2022-08-05T08:01:12.193Z,69.50
2022-08-05T08:03:45.071Z,71.00
2022-08-05T08:06:17.059Z,71.20
2022-08-05T08:08:51.377Z,69.60
2022-08-05T08:11:50.274Z,71.20
2022-08-05T08:14:20.953Z,70.60
2022-08-05T08:16:53.438Z,69.20
2022-08-05T08:20:10.828Z,69.70
2022-08-05T08:22:26.914Z,69.30
2022-08-05T08:25:02.895Z,69.10
2022-08-05T08:27:51.232Z,68.70
2022-08-05T08:30:33.934Z,69.60
2022-08-05T08:33:13.841Z,70.00
2022-08-05T08:35:52.912Z,68.70
2022-08-05T08:38:35.308Z,69.90
2022-08-05T08:41:14.285Z,70.00
2022-08-05T08:45:19.740Z,72.00
2022-08-05T08:46:39.372Z,70.00
2022-08-05T08:50:23.236Z,70.10
2022-08-05T08:52:30.452Z,70.10
2022-08-05T08:55:13.310Z,70.90
2022-08-05T08:57:58.445Z,68.80
2022-08-05T09:00:31.078Z,70.00
2022-08-05T09:03:06.864Z,70.10
2022-08-05T09:06:09.082Z,69.50
2022-08-05T09:08:33.682Z,68.90
2022-08-05T09:11:06.011Z,68.80
2022-08-05T09:14:01.220Z,68.50
2022-08-05T09:16:34.355Z,67.90
2022-08-05T09:19:09.295Z,67.50
2022-08-05T09:22:22.396Z,65.60
2022-08-05T09:24:38.556Z,65.30
2022-08-05T09:27:13.277Z,66.70
2022-08-05T09:30:16.469Z,66.70
2022-08-05T09:32:53.646Z,66.60
2022-08-05T09:35:27.300Z,66.60
2022-08-05T09:38:17.604Z,66.60
2022-08-05T09:40:52.465Z,66.80
2022-08-05T09:43:41.915Z,66.30
2022-08-05T09:46:35.244Z,66.70
2022-08-05T09:49:23.537Z,65.40
2022-08-05T09:52:26.998Z,65.60
2022-08-05T09:55:06.277Z,65.90
2022-08-05T09:58:01.387Z,65.70
2022-08-05T10:00:33.529Z,67.60
2022-08-05T10:03:14.189Z,67.70
2022-08-05T10:05:46.594Z,67.40
2022-08-05T10:08:37.741Z,67.60
2022-08-05T10:11:17.769Z,67.60
2022-08-05T10:13:49.875Z,67.50
2022-08-05T10:16:33.841Z,67.40
2022-08-05T10:19:10.183Z,68.30
2022-08-05T10:21:45.713Z,68.30
2022-08-05T10:24:19.709Z,68.80
2022-08-05T10:27:00.491Z,68.80
2022-08-05T10:30:41.912Z,68.60
2022-08-05T10:33:01.746Z,68.30
2022-08-05T10:35:21.126Z,67.40
2022-08-05T10:38:08.411Z,66.50
2022-08-05T10:40:49.842Z,67.10
2022-08-05T10:43:30.924Z,68.10
2022-08-05T10:46:11.903Z,66.90
2022-08-05T10:48:56.629Z,67.20
2022-08-05T10:51:57.572Z,66.60
2022-08-05T10:54:56.997Z,66.40
2022-08-05T10:57:33.850Z,66.50
2022-08-05T11:00:19.201Z,65.90
2022-08-05T11:03:24.291Z,66.30
2022-08-05T11:06:15.070Z,65.40
2022-08-05T11:09:13.057Z,66.10
2022-08-05T11:11:54.107Z,66.40
2022-08-05T11:14:57.525Z,65.90
2022-08-05T11:17:58.860Z,65.60
2022-08-05T11:20:51.114Z,65.20
2022-08-05T11:24:03.405Z,65.70
2022-08-05T11:26:38.747Z,66.40
2022-08-05T11:29:41.118Z,67.10
2022-08-05T11:32:34.798Z,66.60
2022-08-05T11:35:07.868Z,67.60
2022-08-05T11:38:29.748Z,67.80
2022-08-05T11:41:14.032Z,68.30
2022-08-05T11:44:05.410Z,68.10
2022-08-05T11:47:09.403Z,67.10
2022-08-05T11:49:34.332Z,68.00
2022-08-05T11:52:11.775Z,67.80
2022-08-05T11:54:48.525Z,67.80
2022-08-05T11:58:08.624Z,67.10
2022-08-05T12:00:28.838Z,67.80
2022-08-05T12:03:29.515Z,67.70
2022-08-05T12:06:06.602Z,67.00
2022-08-05T12:08:48.016Z,67.30
2022-08-05T12:11:40.288Z,66.40
2022-08-05T12:14:16.918Z,66.40
2022-08-05T12:16:50.081Z,66.10
2022-08-05T12:20:27.202Z,66.40
2022-08-05T12:22:29.569Z,66.80
2022-08-05T12:25:05.264Z,66.80
2022-08-05T12:27:53.407Z,66.40
2022-08-05T12:30:32.075Z,65.60
2022-08-05T12:33:26.964Z,66.70
2022-08-05T12:35:59.273Z,65.70
2022-08-05T12:38:31.573Z,65.10
2022-08-05T12:41:03.661Z,65.70
2022-08-05T12:43:35.975Z,66.00
2022-08-05T12:46:28.038Z,65.50
2022-08-05T12:49:25.639Z,65.20
2022-08-05T12:52:25.299Z,65.40
2022-08-05T12:55:15.809Z,65.20
2022-08-05T12:58:52.741Z,65.40
2022-08-05T13:02:00.102Z,65.50
2022-08-05T13:03:43.052Z,65.40
2022-08-05T13:06:18.244Z,65.60
2022-08-05T13:08:51.687Z,65.60
2022-08-05T13:12:01.920Z,65.30
2022-08-05T13:14:24.653Z,65.50
2022-08-05T13:17:31.615Z,65.30
2022-08-05T13:20:19.185Z,64.90
2022-08-05T13:22:53.962Z,65.10
2022-08-05T13:25:52.764Z,65.00
2022-08-05T13:28:18.461Z,64.50
2022-08-05T13:30:51.123Z,64.60
2022-08-05T13:34:21.944Z,65.00
2022-08-05T13:36:20.012Z,64.90
2022-08-05T13:38:52.542Z,64.80
2022-08-05T13:41:36.004Z,63.70
2022-08-05T13:44:11.638Z,64.30
2022-08-05T13:47:04.538Z,64.10
2022-08-05T13:49:37.815Z,63.70
2022-08-05T13:52:19.613Z,63.70
2022-08-05T13:55:01.372Z,64.50
2022-08-05T13:57:51.392Z,63.50
2022-08-05T14:00:27.156Z,63.40
2022-08-05T14:03:01.172Z,63.60
2022-08-05T14:06:04.635Z,64.30
2022-08-05T14:08:32.495Z,63.60
2022-08-05T14:11:20.490Z,64.00
2022-08-05T14:13:57.738Z,64.10
2022-08-05T14:16:32.228Z,63.70
2022-08-05T14:19:04.408Z,63.60
2022-08-05T14:22:09.368Z,63.80
2022-08-05T14:24:28.512Z,63.80
2022-08-05T14:27:17.419Z,63.60
2022-08-05T14:29:52.144Z,63.70
2022-08-05T14:32:26.982Z,63.80
2022-08-05T14:35:01.562Z,63.40
2022-08-05T14:37:45.574Z,62.80
2022-08-05T14:40:21.010Z,62.80
2022-08-05T14:42:56.434Z,62.80
2022-08-05T14:45:30.529Z,62.50
2022-08-05T14:48:06.037Z,62.90
2022-08-05T14:50:40.948Z,63.40
2022-08-05T14:53:15.039Z,63.50
2022-08-05T14:55:52.077Z,63.60
2022-08-05T14:58:26.697Z,63.30
2022-08-05T15:01:03.537Z,63.60
2022-08-05T15:03:39.086Z,63.80
2022-08-05T15:06:15.163Z,64.20
2022-08-05T15:08:59.673Z,64.40
2022-08-05T15:11:52.831Z,64.00
2022-08-05T15:14:34.458Z,64.20
2022-08-05T15:17:09.997Z,64.50
2022-08-05T15:20:01.051Z,65.10
2022-08-05T15:22:37.888Z,64.20
2022-08-05T15:25:11.940Z,63.20
2022-08-05T15:27:52.451Z,63.60
2022-08-05T15:30:26.632Z,64.70
2022-08-05T15:33:01.140Z,65.10
2022-08-05T15:35:36.107Z,65.30
2022-08-05T15:38:31.749Z,65.50
2022-08-05T15:41:21.973Z,65.10
2022-08-05T15:43:55.575Z,65.20
2022-08-05T15:46:27.572Z,64.90
2022-08-05T15:49:10.546Z,64.50
2022-08-05T15:52:13.000Z,64.60
2022-08-05T15:54:39.106Z,64.10
2022-08-05T15:57:11.054Z,64.10
2022-08-05T15:59:44.056Z,64.20
2022-08-05T16:02:25.285Z,64.50
2022-08-05T16:04:59.865Z,64.30
2022-08-05T16:07:32.163Z,63.30
2022-08-05T16:10:04.786Z,62.90
2022-08-05T16:12:43.882Z,63.10
2022-08-05T16:15:21.846Z,62.50
2022-08-05T16:17:57.877Z,62.90
2022-08-05T16:20:32.481Z,63.60
2022-08-05T16:23:05.097Z,63.80
2022-08-05T16:25:41.679Z,64.30
2022-08-05T16:28:14.174Z,64.90
2022-08-05T16:30:47.568Z,65.30
2022-08-05T16:33:22.245Z,65.60
2022-08-05T16:35:54.646Z,65.80
2022-08-05T16:38:29.342Z,66.00
2022-08-05T16:41:21.547Z,66.20
2022-08-05T16:43:56.312Z,66.90
2022-08-05T16:46:28.510Z,66.10
2022-08-05T16:49:02.714Z,66.50
2022-08-05T16:51:50.073Z,66.40
2022-08-05T16:54:30.217Z,66.70
2022-08-05T16:57:04.860Z,66.70
2022-08-05T17:00:01.298Z,67.30
2022-08-05T17:02:34.780Z,71.20
2022-08-05T17:05:07.337Z,76.20
2022-08-05T17:07:47.270Z,78.30
2022-08-05T17:10:30.414Z,79.30
2022-08-05T17:13:02.662Z,80.50
2022-08-05T17:15:48.905Z,80.30
2022-08-05T17:18:24.810Z,81.20
2022-08-05T17:20:59.856Z,81.70
2022-08-05T17:24:03.251Z,82.70
2022-08-05T17:26:24.250Z,84.30
2022-08-05T17:28:56.291Z,85.60
2022-08-05T17:31:41.318Z,87.00
2022-08-05T17:34:20.350Z,87.80
2022-08-05T17:37:02.281Z,89.00
2022-08-05T17:39:41.122Z,90.30
2022-08-05T17:42:18.861Z,91.30
2022-08-05T17:45:17.947Z,92.20
2022-08-05T17:47:55.839Z,93.00
2022-08-05T17:50:31.392Z,93.40
2022-08-05T17:53:05.110Z,94.20
2022-08-05T17:55:39.733Z,94.90
2022-08-05T17:58:16.241Z,95.70
2022-08-05T18:00:51.416Z,96.30
2022-08-05T18:03:58.932Z,97.10
2022-08-05T18:06:18.122Z,97.90
2022-08-05T18:09:03.778Z,98.50
2022-08-05T18:11:35.787Z,99.20
2022-08-05T18:14:13.439Z,99.90
2022-08-05T18:16:52.610Z,99.90
2022-08-05T18:19:25.967Z,99.90
2022-08-05T18:22:09.222Z,99.90
2022-08-05T18:24:45.652Z,99.90
2022-08-05T18:27:18.737Z,99.90
2022-08-05T18:29:54.668Z,99.90
2022-08-05T18:32:29.717Z,99.90
2022-08-05T18:35:01.604Z,99.90
2022-08-05T18:37:40.017Z,99.90
2022-08-05T18:40:34.233Z,99.90
2022-08-05T18:43:09.199Z,99.90
2022-08-05T18:45:48.895Z,99.90
2022-08-05T18:48:31.466Z,99.90
2022-08-05T18:52:05.934Z,99.90
2022-08-05T18:54:18.178Z,99.90
2022-08-05T18:56:50.989Z,99.90
2022-08-05T18:59:42.908Z,99.90
2022-08-05T19:02:26.633Z,99.90
2022-08-05T19:06:11.283Z,99.90
2022-08-05T19:07:56.350Z,99.90
2022-08-05T19:10:34.738Z,99.90
2022-08-05T19:13:12.222Z,99.90
2022-08-05T19:15:57.745Z,99.90
2022-08-05T19:18:32.655Z,99.90
2022-08-05T19:21:07.120Z,99.90
2022-08-05T19:24:07.616Z,99.90
2022-08-05T19:26:33.155Z,99.90
2022-08-05T19:29:06.934Z,99.90
2022-08-05T19:31:44.902Z,99.90
2022-08-05T19:34:23.565Z,99.90
2022-08-05T19:37:00.489Z,99.90
2022-08-05T19:39:45.617Z,99.90
2022-08-05T19:42:35.436Z,99.90
2022-08-05T19:45:14.379Z,99.90
2022-08-05T19:47:49.067Z,99.90
2022-08-05T19:50:27.789Z,99.90
2022-08-05T19:53:09.525Z,99.90
2022-08-05T19:56:15.165Z,99.90
2022-08-05T19:58:53.359Z,99.90
2022-08-05T20:01:28.194Z,99.90
2022-08-05T20:04:01.030Z,99.90
2022-08-05T20:06:45.868Z,99.90
2022-08-05T20:09:20.827Z,99.90
2022-08-05T20:11:54.963Z,99.90
2022-08-05T20:14:27.368Z,99.90
2022-08-05T20:17:04.973Z,99.90
2022-08-05T20:19:41.376Z,99.90
2022-08-05T20:22:14.436Z,99.90
2022-08-05T20:24:46.294Z,99.90
2022-08-05T20:27:18.366Z,99.90
2022-08-05T20:29:57.650Z,99.90
2022-08-05T20:32:30.557Z,99.90
2022-08-05T20:35:05.603Z,99.90
2022-08-05T20:38:06.771Z,99.90
2022-08-05T20:40:35.580Z,99.90
2022-08-05T20:43:10.637Z,99.90
2022-08-05T20:45:47.688Z,99.90
2022-08-05T20:48:28.778Z,99.90
2022-08-05T20:51:00.642Z,99.90
2022-08-05T20:53:40.938Z,99.90
2022-08-05T20:56:13.060Z,99.90
2022-08-05T20:58:47.378Z,99.90
2022-08-05T21:01:37.528Z,99.90
2022-08-05T21:04:10.640Z,99.90
2022-08-05T21:06:46.097Z,99.90
2022-08-05T21:09:22.907Z,99.90
2022-08-05T21:12:08.890Z,99.90
2022-08-05T21:14:43.235Z,99.90
2022-08-05T21:17:17.591Z,99.90
2022-08-05T21:19:52.163Z,99.90
2022-08-05T21:22:25.322Z,99.90
2022-08-05T21:24:57.389Z,99.90
2022-08-05T21:27:29.310Z,99.90
2022-08-05T21:30:17.493Z,99.90
2022-08-05T21:32:49.644Z,99.90
2022-08-05T21:35:29.997Z,99.90
2022-08-05T21:38:03.087Z,99.90
2022-08-05T21:40:41.469Z,99.90
2022-08-05T21:43:24.153Z,99.90
2022-08-05T21:46:00.492Z,99.90
2022-08-05T21:48:32.829Z,99.90
2022-08-05T21:51:25.326Z,99.90
2022-08-05T21:54:03.967Z,99.90
2022-08-05T21:56:36.109Z,99.90
2022-08-05T21:59:23.884Z,99.90
2022-08-05T22:01:59.514Z,99.90
2022-08-05T22:04:33.754Z,99.90
2022-08-05T22:07:06.094Z,99.90
2022-08-05T22:09:45.985Z,99.90
2022-08-05T22:12:18.463Z,99.90
2022-08-05T22:14:58.625Z,99.90
2022-08-05T22:17:31.799Z,99.90
2022-08-05T22:20:14.904Z,99.90
2022-08-05T22:23:17.128Z,99.90
2022-08-05T22:26:12.284Z,99.90
2022-08-05T22:28:49.490Z,99.90
2022-08-05T22:31:23.577Z,99.90
2022-08-05T22:34:02.221Z,99.90
2022-08-05T22:36:36.490Z,99.90
2022-08-05T22:39:10.416Z,99.90
2022-08-05T22:42:09.898Z,99.90
2022-08-05T22:44:37.740Z,99.90
2022-08-05T22:47:11.210Z,99.90
2022-08-05T22:50:17.787Z,99.90
2022-08-05T22:52:37.880Z,99.90
2022-08-05T22:55:19.571Z,99.90
2022-08-05T22:57:54.112Z,99.90
2022-08-05T23:00:26.922Z,99.90
2022-08-05T23:03:01.590Z,99.90
2022-08-05T23:05:36.418Z,99.90
2022-08-05T23:08:12.452Z,99.90
2022-08-05T23:10:46.138Z,99.90
2022-08-05T23:13:18.011Z,99.90
2022-08-05T23:15:56.971Z,99.90
2022-08-05T23:18:28.837Z,99.90
2022-08-05T23:21:02.940Z,99.90
2022-08-05T23:23:37.234Z,99.90
2022-08-05T23:26:14.706Z,99.90
2022-08-05T23:28:52.040Z,99.90
2022-08-05T23:31:28.121Z,99.90
2022-08-05T23:34:06.837Z,99.90
2022-08-05T23:36:44.698Z,99.90
2022-08-05T23:39:32.220Z,99.90
2022-08-05T23:42:13.540Z,99.90
2022-08-05T23:44:54.492Z,99.90
2022-08-05T23:47:26.520Z,99.90
2022-08-05T23:49:59.433Z,99.90
2022-08-05T23:52:36.228Z,99.90
2022-08-05T23:55:24.743Z,99.90
2022-08-05T23:58:05.632Z,99.90
